CheckWX is a tool to help pilots better visualize weather data.  It is not intended as a substitute for an official pre-flight weather briefing.

06:56:05 UTC

KHRO TAF
Boone County Airport
Harrison, Arkansas, USA
KHRO 210529Z 2106/2206 15006G16KT P6SM SCT020 BKN040 TEMPO 2108/2112 -SHRA OVC020 FM211200 16012KT P6SM VCSH BKN015 OVC030 FM211800 18012G24KT P6SM SCT030 BKN050 FM220000 16010KT P6SM SCT050 OVC100

Sep-21@
06:00 UTC

Sep-21 @ 06:00 UTC

Sep-21@
12:00 UTC

Sep-21 @ 12:00 UTC

KHRO 210529Z 2106/2206 15006G16KT P6SM SCT020 BKN040
Wind
  • 150° at 6 KTS
  • {Gusting to 16 KTS
Cloud Levels
  • Scattered at 2,000' AGL
  • Broken at 4,000' AGL

Sep-21@
08:00 UTC

Sep-21 @ 08:00 UTC

Sep-21@
12:00 UTC

Sep-21 @ 12:00 UTC

TEMPO 2108/2112 -SHRA OVC020

Temporary

Temporary Changes expected for less than half the time period

Conditions
Light Rain
Cloud Levels
  • Overcast at 2,000' AGL

Sep-21@
12:00 UTC

Sep-21 @ 12:00 UTC

Sep-21@
18:00 UTC

Sep-21 @ 18:00 UTC

FM211200 16012KT P6SM VCSH BKN015 OVC030

From

From Standard forecast or significant change

Wind
  • 160° at 12 KTS
Cloud Levels
  • Broken at 1,500' AGL
  • Overcast at 3,000' AGL

Sep-21@
18:00 UTC

Sep-21 @ 18:00 UTC

Sep-22@
00:00 UTC

Sep-22 @ 00:00 UTC

FM211800 18012G24KT P6SM SCT030 BKN050

From

From Standard forecast or significant change

Wind
  • 180° at 12 KTS
  • {Gusting to 24 KTS
Cloud Levels
  • Scattered at 3,000' AGL
  • Broken at 5,000' AGL

Sep-22@
00:00 UTC

Sep-22 @ 00:00 UTC

Sep-22@
06:00 UTC

Sep-22 @ 06:00 UTC

FM220000 16010KT P6SM SCT050 OVC100

From

From Standard forecast or significant change

Wind
  • 160° at 10 KTS
Cloud Levels
  • Scattered at 5,000' AGL
  • Overcast at 10,000' AGL